createdAt,value
2022-08-28T00:01:28.468Z,8.27
2022-08-28T00:03:56.677Z,3.73
2022-08-28T00:06:24.752Z,5.00
2022-08-28T00:08:57.032Z,3.90
2022-08-28T00:11:25.507Z,3.27
2022-08-28T00:13:56.673Z,2.87
2022-08-28T00:16:26.538Z,6.40
2022-08-28T00:18:57.450Z,4.50
2022-08-28T00:21:25.905Z,3.30
2022-08-28T00:23:56.029Z,3.53
2022-08-28T00:26:39.196Z,7.43
2022-08-28T00:29:08.792Z,3.20
2022-08-28T00:31:40.628Z,7.43
2022-08-28T00:34:12.533Z,3.73
2022-08-28T00:36:41.526Z,5.50
2022-08-28T00:39:14.125Z,5.27
2022-08-28T00:41:45.256Z,6.07
2022-08-28T00:44:15.790Z,5.50
2022-08-28T00:46:47.630Z,3.83
2022-08-28T00:49:18.405Z,4.53
2022-08-28T00:52:05.236Z,5.63
2022-08-28T00:54:38.528Z,4.60
2022-08-28T00:57:11.630Z,8.53
2022-08-28T00:59:40.037Z,5.10
2022-08-28T01:02:09.617Z,6.30
2022-08-28T01:04:38.404Z,7.80
2022-08-28T01:07:09.506Z,6.83
2022-08-28T01:09:44.440Z,5.37
2022-08-28T01:12:19.309Z,10.67
2022-08-28T01:14:51.388Z,7.03
2022-08-28T01:17:23.859Z,8.77
2022-08-28T01:19:58.495Z,6.63
2022-08-28T01:22:35.413Z,3.77
2022-08-28T01:25:08.747Z,4.37
2022-08-28T01:27:37.222Z,3.60
2022-08-28T01:30:05.897Z,6.33
2022-08-28T01:32:36.813Z,4.83
2022-08-28T01:35:06.339Z,4.57
2022-08-28T01:37:35.031Z,4.47
2022-08-28T01:40:05.276Z,5.53
2022-08-28T01:42:38.847Z,10.63
2022-08-28T01:45:11.221Z,5.57
2022-08-28T01:47:39.536Z,5.80
2022-08-28T01:50:10.305Z,4.80
2022-08-28T01:52:39.460Z,5.13
2022-08-28T01:55:11.349Z,6.17
2022-08-28T01:57:45.101Z,5.90
2022-08-28T02:00:16.258Z,5.97
2022-08-28T02:02:44.619Z,5.37
2022-08-28T02:05:13.166Z,7.00
2022-08-28T02:07:42.236Z,3.70
2022-08-28T02:10:12.421Z,3.87
2022-08-28T02:12:43.387Z,5.03
2022-08-28T02:15:14.302Z,3.97
2022-08-28T02:17:42.585Z,4.37
2022-08-28T02:20:12.729Z,4.70
2022-08-28T02:22:41.413Z,5.63
2022-08-28T02:25:12.439Z,4.83
2022-08-28T02:27:41.156Z,5.53
2022-08-28T02:30:13.203Z,4.17
2022-08-28T02:32:41.776Z,4.73
2022-08-28T02:35:16.711Z,4.90
2022-08-28T02:37:47.663Z,5.37
2022-08-28T02:40:23.747Z,7.23
2022-08-28T02:42:53.117Z,4.77
2022-08-28T02:45:25.255Z,4.53
2022-08-28T02:47:55.008Z,6.50
2022-08-28T02:50:25.496Z,4.40
2022-08-28T02:52:54.310Z,5.53
2022-08-28T02:55:24.761Z,4.73
2022-08-28T02:57:54.752Z,7.10
2022-08-28T03:00:25.825Z,5.57
2022-08-28T03:02:55.159Z,6.67
2022-08-28T03:05:27.395Z,11.93
2022-08-28T03:07:56.486Z,6.50
2022-08-28T03:10:28.436Z,5.90
2022-08-28T03:12:56.738Z,7.37
2022-08-28T03:15:26.616Z,5.37
2022-08-28T03:17:55.584Z,9.27
2022-08-28T03:20:24.411Z,7.07
2022-08-28T03:23:09.987Z,5.83
2022-08-28T03:25:40.246Z,6.13
2022-08-28T03:28:08.624Z,7.27
2022-08-28T03:30:37.004Z,7.10
2022-08-28T03:33:05.727Z,7.77
2022-08-28T03:35:34.724Z,7.23
2022-08-28T03:38:03.239Z,13.73
2022-08-28T03:40:32.436Z,9.27
2022-08-28T03:43:04.824Z,7.63
2022-08-28T03:45:35.603Z,7.60
2022-08-28T03:48:05.159Z,5.93
2022-08-28T03:50:33.323Z,6.57
2022-08-28T03:53:03.227Z,8.70
2022-08-28T03:55:34.183Z,9.90
2022-08-28T03:58:04.941Z,7.33
2022-08-28T04:00:34.835Z,10.17
2022-08-28T04:03:04.601Z,11.20
2022-08-28T04:05:35.369Z,12.80
2022-08-28T04:08:03.782Z,15.83
2022-08-28T04:10:33.256Z,11.17
2022-08-28T04:13:02.094Z,11.10
2022-08-28T04:15:32.183Z,12.07
2022-08-28T04:18:00.550Z,11.73
2022-08-28T04:20:29.830Z,11.67
2022-08-28T04:23:01.442Z,7.33
2022-08-28T04:25:30.622Z,13.07
2022-08-28T04:27:59.098Z,5.23
2022-08-28T04:30:27.240Z,6.37
2022-08-28T04:32:56.962Z,5.37
2022-08-28T04:35:26.054Z,5.77
2022-08-28T04:37:58.657Z,8.60
2022-08-28T04:40:27.351Z,9.50
2022-08-28T04:42:55.855Z,8.37
2022-08-28T04:45:24.379Z,10.00
2022-08-28T04:47:52.656Z,11.80
2022-08-28T04:50:22.475Z,11.47
2022-08-28T04:52:52.696Z,14.63
2022-08-28T04:55:33.823Z,6.23
2022-08-28T04:58:10.123Z,7.77
2022-08-28T05:00:39.733Z,6.10
2022-08-28T05:03:08.112Z,6.27
2022-08-28T05:05:44.725Z,6.00
2022-08-28T05:08:14.918Z,5.30
2022-08-28T05:10:44.346Z,8.03
2022-08-28T05:13:13.542Z,6.73
2022-08-28T05:15:42.716Z,7.33
2022-08-28T05:18:11.178Z,8.57
2022-08-28T05:20:44.191Z,7.27
2022-08-28T05:23:13.875Z,9.10
2022-08-28T05:25:44.708Z,6.20
2022-08-28T05:28:13.931Z,6.43
2022-08-28T05:30:44.055Z,7.53
2022-08-28T05:33:15.125Z,6.67
2022-08-28T05:35:46.936Z,9.70
2022-08-28T05:38:18.209Z,7.67
2022-08-28T05:40:50.308Z,6.33
2022-08-28T05:43:19.793Z,5.47
2022-08-28T05:45:57.907Z,6.13
2022-08-28T05:48:30.394Z,9.47
2022-08-28T05:51:08.037Z,7.73
2022-08-28T05:53:38.867Z,7.37
2022-08-28T05:56:09.242Z,9.60
2022-08-28T05:58:40.769Z,6.60
2022-08-28T06:01:11.985Z,5.60
2022-08-28T06:03:41.485Z,6.47
2022-08-28T06:06:13.283Z,6.33
2022-08-28T06:08:58.377Z,6.90
2022-08-28T06:11:31.197Z,5.73
2022-08-28T06:14:02.606Z,7.50
2022-08-28T06:16:33.175Z,4.57
2022-08-28T06:19:01.810Z,5.87
2022-08-28T06:21:36.319Z,4.37
2022-08-28T06:24:05.430Z,7.03
2022-08-28T06:26:34.071Z,3.80
2022-08-28T06:29:03.061Z,4.30
2022-08-28T06:31:34.039Z,5.03
2022-08-28T06:34:02.857Z,5.63
2022-08-28T06:36:35.196Z,6.80
2022-08-28T06:39:05.882Z,5.10
2022-08-28T06:41:35.675Z,7.43
2022-08-28T06:44:04.233Z,4.10
2022-08-28T06:46:33.407Z,6.60
2022-08-28T06:49:04.417Z,4.60
2022-08-28T06:51:35.685Z,4.97
2022-08-28T06:54:04.713Z,4.57
2022-08-28T06:56:33.348Z,5.43
2022-08-28T06:59:01.861Z,5.33
2022-08-28T07:01:33.536Z,5.93
2022-08-28T07:04:06.727Z,3.47
2022-08-28T07:06:44.142Z,7.93
2022-08-28T07:09:13.564Z,5.47
2022-08-28T07:11:45.698Z,5.33
2022-08-28T07:14:14.114Z,5.93
2022-08-28T07:16:45.103Z,5.33
2022-08-28T07:19:15.102Z,6.77
2022-08-28T07:21:46.716Z,6.80
2022-08-28T07:24:16.679Z,6.90
2022-08-28T07:26:47.146Z,4.80
2022-08-28T07:29:16.249Z,4.93
2022-08-28T07:31:47.701Z,9.00
2022-08-28T07:34:17.679Z,4.43
2022-08-28T07:36:48.306Z,5.73
2022-08-28T07:39:17.106Z,5.20
2022-08-28T07:41:46.191Z,6.30
2022-08-28T07:44:34.279Z,5.30
2022-08-28T07:47:06.807Z,5.87
2022-08-28T07:49:37.397Z,8.53
2022-08-28T07:52:09.416Z,7.53
2022-08-28T07:54:40.644Z,12.10
2022-08-28T07:57:11.080Z,7.70
2022-08-28T07:59:42.419Z,6.07
2022-08-28T08:02:11.630Z,5.13
2022-08-28T08:04:40.191Z,7.57
2022-08-28T08:07:09.999Z,5.57
2022-08-28T08:09:39.917Z,7.93
2022-08-28T08:12:10.393Z,8.33
2022-08-28T08:14:39.417Z,5.77
2022-08-28T08:17:08.141Z,7.13
2022-08-28T08:19:37.239Z,7.47
2022-08-28T08:22:07.895Z,7.47
2022-08-28T08:24:37.667Z,7.23
2022-08-28T08:27:07.089Z,11.50
2022-08-28T08:29:40.564Z,7.07
2022-08-28T08:32:11.569Z,8.30
2022-08-28T08:34:43.106Z,11.53
2022-08-28T08:37:11.886Z,5.87
2022-08-28T08:39:54.848Z,7.40
2022-08-28T08:42:27.612Z,7.63
2022-08-28T08:44:59.279Z,7.23
2022-08-28T08:47:37.001Z,9.10
2022-08-28T08:50:08.661Z,5.40
2022-08-28T08:52:41.811Z,10.50
2022-08-28T08:55:22.174Z,16.00
2022-08-28T08:57:57.154Z,22.37
2022-08-28T09:00:25.942Z,16.03
2022-08-28T09:03:02.711Z,11.00
2022-08-28T09:05:42.829Z,12.77
2022-08-28T09:08:21.574Z,10.43
2022-08-28T09:11:01.089Z,6.17
2022-08-28T09:13:41.719Z,6.93
2022-08-28T09:16:23.224Z,5.73
2022-08-28T09:18:52.390Z,7.63
2022-08-28T09:21:32.509Z,6.13
2022-08-28T09:24:11.831Z,8.30
2022-08-28T09:26:41.991Z,26.57
2022-08-28T09:29:18.642Z,16.17
2022-08-28T09:31:46.951Z,9.57
2022-08-28T09:34:23.748Z,4.57
2022-08-28T09:36:53.521Z,7.33
2022-08-28T09:39:25.027Z,7.40
2022-08-28T09:42:17.627Z,36.63
2022-08-28T09:45:02.672Z,21.70
2022-08-28T09:47:46.611Z,11.27
2022-08-28T09:50:35.285Z,6.43
2022-08-28T09:53:20.819Z,24.30
2022-08-28T09:55:58.453Z,17.97
2022-08-28T09:58:34.848Z,17.53
2022-08-28T10:01:11.810Z,10.07
2022-08-28T10:03:50.178Z,5.30
2022-08-28T10:06:26.937Z,8.50
2022-08-28T10:09:10.437Z,5.37
2022-08-28T10:11:46.313Z,4.90
2022-08-28T10:14:29.681Z,3.37
2022-08-28T10:17:08.023Z,4.43
2022-08-28T10:19:46.890Z,6.13
2022-08-28T10:22:30.866Z,3.67
2022-08-28T10:25:13.540Z,4.97
2022-08-28T10:27:55.534Z,3.43
2022-08-28T10:30:26.273Z,5.73
2022-08-28T10:33:24.082Z,5.70
2022-08-28T10:35:58.694Z,2.63
2022-08-28T10:38:40.069Z,2.17
2022-08-28T10:41:14.149Z,3.75
2022-08-28T10:43:48.005Z,3.43
2022-08-28T10:46:27.334Z,6.25
2022-08-28T10:49:01.253Z,6.05
2022-08-28T10:51:37.644Z,3.78
2022-08-28T10:54:20.629Z,5.45
2022-08-28T10:56:56.303Z,2.58
2022-08-28T10:59:26.922Z,6.18
2022-08-28T11:02:02.754Z,4.68
2022-08-28T11:04:36.007Z,2.78
2022-08-28T11:07:10.798Z,4.37
2022-08-28T11:10:03.289Z,5.35
2022-08-28T11:15:51.092Z,5.25
2022-08-28T11:19:06.540Z,3.97
2022-08-28T11:21:42.773Z,4.70
2022-08-28T11:24:26.257Z,5.38
2022-08-28T11:27:08.003Z,2.90
2022-08-28T11:29:58.764Z,3.67
2022-08-28T11:32:57.444Z,2.47
2022-08-28T11:35:50.792Z,4.88
2022-08-28T11:38:57.987Z,2.58
2022-08-28T11:41:30.779Z,4.25
2022-08-28T11:45:09.860Z,5.80
2022-08-28T11:48:16.124Z,4.20
2022-08-28T11:51:30.393Z,5.80
2022-08-28T11:54:13.621Z,5.72
2022-08-28T11:56:54.577Z,6.85
2022-08-28T12:00:01.024Z,3.30
2022-08-28T12:02:51.339Z,18.88
2022-08-28T12:05:45.435Z,6.60
2022-08-28T12:08:15.412Z,23.98
2022-08-28T12:10:59.177Z,68.95
2022-08-28T12:13:50.061Z,43.90
2022-08-28T12:16:32.558Z,26.73
2022-08-28T12:19:04.355Z,21.02
2022-08-28T12:21:41.736Z,4.05
2022-08-28T12:24:23.125Z,4.57
2022-08-28T12:26:57.023Z,2.80
2022-08-28T12:29:34.252Z,3.97
2022-08-28T12:32:30.657Z,6.13
2022-08-28T12:35:16.944Z,3.92
2022-08-28T12:37:52.131Z,3.33
2022-08-28T12:40:25.048Z,2.25
2022-08-28T12:42:58.652Z,4.38
2022-08-28T12:45:34.909Z,3.03
2022-08-28T12:48:11.281Z,1.35
2022-08-28T12:50:41.533Z,3.08
2022-08-28T12:53:16.666Z,4.25
2022-08-28T12:55:46.976Z,3.90
2022-08-28T12:58:16.323Z,5.53
2022-08-28T13:00:57.121Z,2.88
2022-08-28T13:03:26.132Z,5.03
2022-08-28T13:06:05.219Z,1.92
2022-08-28T13:08:35.809Z,3.33
2022-08-28T13:11:05.286Z,2.83
2022-08-28T13:13:38.716Z,4.15
2022-08-28T13:16:37.939Z,3.25
2022-08-28T13:19:35.686Z,2.28
2022-08-28T13:25:55.629Z,11.05
2022-08-28T13:28:24.794Z,17.20
2022-08-28T13:31:00.540Z,13.32
2022-08-28T13:33:36.163Z,3.38
2022-08-28T13:36:25.676Z,2.78
2022-08-28T13:39:36.060Z,10.77
2022-08-28T13:42:09.969Z,7.68
2022-08-28T13:44:48.822Z,19.50
2022-08-28T13:47:22.403Z,8.32
2022-08-28T13:49:53.465Z,6.13
2022-08-28T13:52:21.711Z,2.67
2022-08-28T13:54:51.426Z,5.60
2022-08-28T13:57:19.950Z,4.63
2022-08-28T13:59:52.373Z,4.82
2022-08-28T14:02:42.979Z,13.98
2022-08-28T14:05:14.098Z,20.20
2022-08-28T14:07:52.460Z,3.75
2022-08-28T14:10:21.918Z,4.55
2022-08-28T14:12:56.922Z,1.92
2022-08-28T14:15:25.969Z,4.88
2022-08-28T14:17:55.805Z,4.05
2022-08-28T14:20:42.655Z,3.40
2022-08-28T14:23:11.858Z,11.23
2022-08-28T14:25:44.168Z,20.88
2022-08-28T14:28:15.173Z,10.73
2022-08-28T14:30:48.333Z,26.17
2022-08-28T14:33:18.976Z,34.38
2022-08-28T14:35:54.219Z,24.13
2022-08-28T14:38:24.050Z,7.00
2022-08-28T14:40:55.120Z,6.57
2022-08-28T14:43:26.376Z,6.13
2022-08-28T14:45:56.331Z,21.27
2022-08-28T14:48:25.500Z,16.25
2022-08-28T14:50:57.366Z,9.43
2022-08-28T14:53:26.437Z,4.22
2022-08-28T14:55:55.575Z,2.85
2022-08-28T14:58:24.224Z,2.53
2022-08-28T15:00:53.427Z,3.00
2022-08-28T15:03:21.890Z,3.58
2022-08-28T15:06:02.787Z,3.05
2022-08-28T15:08:35.464Z,3.20
2022-08-28T15:11:07.952Z,4.68
2022-08-28T15:13:37.653Z,11.52
2022-08-28T15:16:15.710Z,38.38
2022-08-28T15:18:46.266Z,10.68
2022-08-28T15:21:22.772Z,11.10
2022-08-28T15:23:52.026Z,7.38
2022-08-28T15:26:21.995Z,5.75
2022-08-28T15:28:55.980Z,6.88
2022-08-28T15:31:26.508Z,28.17
2022-08-28T15:33:55.479Z,6.18
2022-08-28T15:36:25.361Z,9.97
2022-08-28T15:39:11.084Z,4.35
2022-08-28T15:41:39.615Z,2.65
2022-08-28T15:44:10.965Z,3.70
2022-08-28T15:46:50.361Z,12.48
2022-08-28T15:49:20.200Z,9.90
2022-08-28T15:52:00.721Z,12.30
2022-08-28T15:54:30.072Z,14.52
2022-08-28T15:57:07.861Z,17.52
2022-08-28T15:59:49.161Z,7.20
2022-08-28T16:02:22.861Z,4.90
2022-08-28T16:04:59.785Z,24.75
2022-08-28T16:07:29.955Z,56.90
2022-08-28T16:09:58.518Z,33.17
2022-08-28T16:12:32.283Z,8.73
2022-08-28T16:15:00.906Z,11.02
2022-08-28T16:17:32.646Z,4.03
2022-08-28T16:20:01.540Z,3.55
2022-08-28T16:22:32.925Z,1.80
2022-08-28T16:25:02.609Z,2.83
2022-08-28T16:27:42.861Z,1.55
2022-08-28T16:30:16.139Z,3.25
2022-08-28T16:32:46.824Z,1.70
2022-08-28T16:35:16.408Z,3.38
2022-08-28T16:37:46.255Z,3.92
2022-08-28T16:40:15.239Z,1.40
2022-08-28T16:42:51.331Z,3.20
2022-08-28T16:45:22.144Z,2.13
2022-08-28T16:47:53.549Z,1.92
2022-08-28T16:50:21.989Z,1.63
2022-08-28T16:52:54.094Z,3.65
2022-08-28T16:55:23.814Z,2.45
2022-08-28T17:00:44.368Z,1.98
2022-08-28T17:03:26.536Z,1.23
2022-08-28T17:05:58.172Z,2.45
2022-08-28T17:08:28.025Z,1.70
2022-08-28T17:10:57.352Z,1.02
2022-08-28T17:13:40.963Z,0.50
2022-08-28T17:16:23.996Z,2.00
2022-08-28T17:19:04.942Z,3.10
2022-08-28T17:21:52.879Z,2.30
2022-08-28T17:24:25.004Z,2.40
2022-08-28T17:26:56.034Z,1.48
2022-08-28T17:29:29.979Z,2.03
2022-08-28T17:32:00.946Z,1.58
2022-08-28T17:34:30.584Z,1.88
2022-08-28T17:37:06.179Z,3.25
2022-08-28T17:39:42.310Z,1.90
2022-08-28T17:42:15.119Z,1.88
2022-08-28T17:44:47.410Z,1.45
2022-08-28T17:47:35.767Z,5.50
2022-08-28T17:50:07.361Z,4.32
2022-08-28T17:52:36.185Z,1.70
2022-08-28T17:55:07.633Z,1.08
2022-08-28T17:57:36.175Z,2.83
2022-08-28T18:00:06.740Z,3.53
2022-08-28T18:02:35.511Z,4.67
2022-08-28T18:05:06.067Z,2.97
2022-08-28T18:07:34.945Z,1.15
2022-08-28T18:10:09.985Z,1.47
2022-08-28T18:12:40.171Z,2.40
2022-08-28T18:15:13.842Z,3.50
2022-08-28T18:17:48.193Z,2.47
2022-08-28T18:20:16.659Z,1.50
2022-08-28T18:22:46.313Z,2.03
2022-08-28T18:25:30.364Z,2.50
2022-08-28T18:27:58.977Z,3.17
2022-08-28T18:30:28.011Z,1.80
2022-08-28T18:32:58.552Z,1.80
2022-08-28T18:35:31.021Z,2.37
2022-08-28T18:38:03.559Z,2.27
2022-08-28T18:40:35.141Z,1.30
2022-08-28T18:43:05.830Z,1.10
2022-08-28T18:45:34.602Z,2.40
2022-08-28T18:48:03.524Z,2.20
2022-08-28T18:50:32.788Z,1.37
2022-08-28T18:53:01.998Z,1.60
2022-08-28T18:55:33.439Z,1.77
2022-08-28T18:58:02.659Z,1.77
2022-08-28T19:00:36.501Z,1.77
2022-08-28T19:03:07.786Z,2.07
2022-08-28T19:05:40.396Z,2.97
2022-08-28T19:08:12.343Z,1.50
2022-08-28T19:10:42.830Z,2.00
2022-08-28T19:13:15.041Z,0.93
2022-08-28T19:15:44.030Z,3.40
2022-08-28T19:18:15.609Z,3.20
2022-08-28T19:20:44.261Z,1.30
2022-08-28T19:23:17.357Z,0.67
2022-08-28T19:25:49.288Z,1.97
2022-08-28T19:28:17.529Z,2.57
2022-08-28T19:30:47.414Z,0.87
2022-08-28T19:33:19.182Z,2.63
2022-08-28T19:35:49.532Z,3.70
2022-08-28T19:38:20.185Z,1.60
2022-08-28T19:40:52.476Z,3.60
2022-08-28T19:43:23.680Z,2.40
2022-08-28T19:46:00.531Z,2.33
2022-08-28T19:48:32.070Z,2.23
2022-08-28T19:51:04.674Z,2.93
2022-08-28T19:53:34.289Z,2.80
2022-08-28T19:56:04.396Z,3.43
2022-08-28T19:58:34.277Z,6.07
2022-08-28T20:01:02.810Z,1.90
2022-08-28T20:03:31.676Z,1.87
2022-08-28T20:06:03.971Z,3.17
2022-08-28T20:08:34.285Z,1.90
2022-08-28T20:11:04.150Z,2.30
2022-08-28T20:13:33.239Z,1.90
2022-08-28T20:16:05.608Z,1.63
2022-08-28T20:18:34.622Z,2.67
2022-08-28T20:21:02.792Z,2.17
2022-08-28T20:23:33.772Z,3.20
2022-08-28T20:26:05.066Z,2.00
2022-08-28T20:28:33.787Z,2.17
2022-08-28T20:31:02.172Z,1.47
2022-08-28T20:33:34.966Z,3.93
2022-08-28T20:36:04.643Z,1.87
2022-08-28T20:38:35.553Z,4.00
2022-08-28T20:41:09.091Z,2.03
2022-08-28T20:43:40.830Z,4.30
2022-08-28T20:46:15.770Z,2.80
2022-08-28T20:48:47.673Z,2.77
2022-08-28T20:51:15.912Z,2.57
2022-08-28T20:53:45.593Z,2.07
2022-08-28T20:56:15.672Z,1.47
2022-08-28T20:58:43.923Z,1.70
2022-08-28T21:01:14.394Z,2.00
2022-08-28T21:03:45.785Z,2.07
2022-08-28T21:06:14.265Z,1.80
2022-08-28T21:08:42.613Z,2.53
2022-08-28T21:11:11.458Z,1.57
2022-08-28T21:13:51.282Z,3.57
2022-08-28T21:16:20.133Z,3.80
2022-08-28T21:19:14.089Z,4.17
2022-08-28T21:21:37.811Z,2.23
2022-08-28T21:24:08.438Z,2.67
2022-08-28T21:26:38.389Z,2.00
2022-08-28T21:29:08.487Z,1.60
2022-08-28T21:31:36.686Z,3.73
2022-08-28T21:34:06.657Z,3.27
2022-08-28T21:36:34.878Z,2.50
2022-08-28T21:39:03.538Z,1.93
2022-08-28T21:41:31.764Z,3.33
2022-08-28T21:44:00.229Z,3.67
2022-08-28T21:46:30.400Z,3.80
2022-08-28T21:48:58.889Z,1.73
2022-08-28T21:51:27.830Z,2.67
2022-08-28T21:53:56.200Z,3.20
2022-08-28T21:56:26.804Z,3.83
2022-08-28T21:59:01.316Z,4.90
2022-08-28T22:01:31.727Z,3.73
2022-08-28T22:04:03.608Z,2.37
2022-08-28T22:06:32.620Z,1.97
2022-08-28T22:09:01.264Z,2.83
2022-08-28T22:11:33.093Z,1.80
2022-08-28T22:14:01.961Z,2.07
2022-08-28T22:16:31.756Z,1.60
2022-08-28T22:19:00.028Z,3.73
2022-08-28T22:21:46.586Z,2.90
2022-08-28T22:24:14.938Z,5.53
2022-08-28T22:26:44.360Z,3.03
2022-08-28T22:29:13.263Z,3.27
2022-08-28T22:31:46.156Z,3.97
2022-08-28T22:34:15.331Z,2.07
2022-08-28T22:36:43.743Z,1.70
2022-08-28T22:39:12.036Z,3.80
2022-08-28T22:41:40.475Z,3.43
2022-08-28T22:44:08.814Z,2.50
2022-08-28T22:46:37.094Z,4.07
2022-08-28T22:49:06.857Z,3.73
2022-08-28T22:51:35.946Z,1.83
2022-08-28T22:54:04.391Z,2.63
2022-08-28T22:56:32.583Z,2.97
2022-08-28T22:59:00.878Z,2.80
2022-08-28T23:01:30.132Z,3.80
2022-08-28T23:04:01.564Z,3.73
2022-08-28T23:06:33.798Z,3.33
2022-08-28T23:09:05.414Z,4.73
2022-08-28T23:11:34.855Z,4.47
2022-08-28T23:14:03.369Z,2.93
2022-08-28T23:16:31.886Z,6.53
2022-08-28T23:19:09.581Z,5.90
2022-08-28T23:21:44.631Z,5.80
2022-08-28T23:24:13.857Z,3.40
2022-08-28T23:26:42.199Z,3.33
2022-08-28T23:29:11.070Z,1.47
2022-08-28T23:31:40.431Z,2.10
2022-08-28T23:34:09.267Z,2.17
2022-08-28T23:36:43.604Z,2.27
2022-08-28T23:39:13.969Z,2.93
2022-08-28T23:41:42.860Z,6.93
2022-08-28T23:44:11.249Z,3.27
2022-08-28T23:46:41.692Z,4.00
2022-08-28T23:49:11.138Z,1.27
2022-08-28T23:51:42.348Z,2.60
2022-08-28T23:54:13.295Z,3.13
2022-08-28T23:56:42.169Z,3.03
2022-08-28T23:59:12.105Z,4.63
